sensor_id;sensor_type;location;lat;lon;timestamp;P1;durP1;ratioP1;P2;durP2;ratioP2
15488;SDS011;7846;48.830;9.116;2023-05-23T00:02:05;42.13;;;31.77;;
15488;SDS011;7846;48.830;9.116;2023-05-23T00:04:33;42.93;;;31.30;;
15488;SDS011;7846;48.830;9.116;2023-05-23T00:06:59;41.60;;;31.93;;
15488;SDS011;7846;48.830;9.116;2023-05-23T00:09:25;42.57;;;31.57;;
15488;SDS011;7846;48.830;9.116;2023-05-23T00:11:53;46.00;;;32.90;;
15488;SDS011;7846;48.830;9.116;2023-05-23T00:14:18;44.43;;;33.00;;
15488;SDS011;7846;48.830;9.116;2023-05-23T00:16:44;44.20;;;32.73;;
15488;SDS011;7846;48.830;9.116;2023-05-23T00:19:10;49.07;;;33.90;;
15488;SDS011;7846;48.830;9.116;2023-05-23T00:21:38;43.37;;;31.90;;
15488;SDS011;7846;48.830;9.116;2023-05-23T00:24:04;46.87;;;32.27;;
15488;SDS011;7846;48.830;9.116;2023-05-23T00:26:30;45.00;;;33.40;;
15488;SDS011;7846;48.830;9.116;2023-05-23T00:28:58;44.87;;;32.90;;
15488;SDS011;7846;48.830;9.116;2023-05-23T00:31:24;40.13;;;32.27;;
15488;SDS011;7846;48.830;9.116;2023-05-23T00:33:49;44.50;;;33.70;;
15488;SDS011;7846;48.830;9.116;2023-05-23T00:36:14;45.97;;;33.37;;
15488;SDS011;7846;48.830;9.116;2023-05-23T00:38:41;44.50;;;33.03;;
15488;SDS011;7846;48.830;9.116;2023-05-23T00:41:07;46.27;;;34.43;;
15488;SDS011;7846;48.830;9.116;2023-05-23T00:43:32;45.90;;;32.83;;
15488;SDS011;7846;48.830;9.116;2023-05-23T00:45:57;46.60;;;33.73;;
15488;SDS011;7846;48.830;9.116;2023-05-23T00:48:24;49.30;;;35.07;;
15488;SDS011;7846;48.830;9.116;2023-05-23T00:50:50;47.67;;;35.37;;
15488;SDS011;7846;48.830;9.116;2023-05-23T00:53:16;50.77;;;34.87;;
15488;SDS011;7846;48.830;9.116;2023-05-23T00:55:42;50.47;;;36.37;;
15488;SDS011;7846;48.830;9.116;2023-05-23T00:58:08;52.03;;;35.83;;
15488;SDS011;7846;48.830;9.116;2023-05-23T01:00:36;53.53;;;36.67;;
15488;SDS011;7846;48.830;9.116;2023-05-23T01:03:02;51.13;;;36.33;;
15488;SDS011;7846;48.830;9.116;2023-05-23T01:05:29;51.87;;;37.23;;
15488;SDS011;7846;48.830;9.116;2023-05-23T01:07:55;56.03;;;38.00;;
15488;SDS011;7846;48.830;9.116;2023-05-23T01:10:22;55.77;;;38.27;;
15488;SDS011;7846;48.830;9.116;2023-05-23T01:15:22;51.53;;;36.03;;
15488;SDS011;7846;48.830;9.116;2023-05-23T01:18:31;60.33;;;38.33;;
15488;SDS011;7846;48.830;9.116;2023-05-23T01:21:06;56.27;;;37.33;;
15488;SDS011;7846;48.830;9.116;2023-05-23T01:26:45;54.80;;;38.67;;
15488;SDS011;7846;48.830;9.116;2023-05-23T01:29:27;57.83;;;38.97;;
15488;SDS011;7846;48.830;9.116;2023-05-23T01:31:56;62.37;;;42.30;;
15488;SDS011;7846;48.830;9.116;2023-05-23T01:34:24;55.87;;;40.57;;
15488;SDS011;7846;48.830;9.116;2023-05-23T01:36:51;59.47;;;41.70;;
15488;SDS011;7846;48.830;9.116;2023-05-23T01:39:19;56.50;;;41.73;;
15488;SDS011;7846;48.830;9.116;2023-05-23T01:41:45;64.60;;;42.50;;
15488;SDS011;7846;48.830;9.116;2023-05-23T01:44:10;68.43;;;44.33;;
15488;SDS011;7846;48.830;9.116;2023-05-23T01:46:36;61.50;;;44.27;;
15488;SDS011;7846;48.830;9.116;2023-05-23T01:49:07;66.17;;;45.63;;
15488;SDS011;7846;48.830;9.116;2023-05-23T01:51:35;66.70;;;44.33;;
15488;SDS011;7846;48.830;9.116;2023-05-23T01:54:00;67.10;;;47.93;;
15488;SDS011;7846;48.830;9.116;2023-05-23T01:56:26;67.33;;;47.13;;
15488;SDS011;7846;48.830;9.116;2023-05-23T01:58:52;72.80;;;48.07;;
15488;SDS011;7846;48.830;9.116;2023-05-23T02:01:18;68.77;;;47.07;;
15488;SDS011;7846;48.830;9.116;2023-05-23T02:03:44;70.90;;;48.87;;
15488;SDS011;7846;48.830;9.116;2023-05-23T02:06:10;72.57;;;49.17;;
15488;SDS011;7846;48.830;9.116;2023-05-23T02:08:36;74.57;;;48.90;;
15488;SDS011;7846;48.830;9.116;2023-05-23T02:11:02;77.17;;;49.00;;
15488;SDS011;7846;48.830;9.116;2023-05-23T02:13:27;77.33;;;50.27;;
15488;SDS011;7846;48.830;9.116;2023-05-23T02:15:53;80.00;;;52.30;;
15488;SDS011;7846;48.830;9.116;2023-05-23T02:18:20;73.13;;;51.50;;
15488;SDS011;7846;48.830;9.116;2023-05-23T02:20:46;71.03;;;48.67;;
15488;SDS011;7846;48.830;9.116;2023-05-23T02:23:12;76.20;;;50.07;;
15488;SDS011;7846;48.830;9.116;2023-05-23T02:25:37;78.80;;;50.77;;
15488;SDS011;7846;48.830;9.116;2023-05-23T02:28:02;73.43;;;50.90;;
15488;SDS011;7846;48.830;9.116;2023-05-23T02:30:28;73.37;;;50.43;;
15488;SDS011;7846;48.830;9.116;2023-05-23T02:32:53;72.33;;;49.67;;
15488;SDS011;7846;48.830;9.116;2023-05-23T02:35:19;77.87;;;51.97;;
15488;SDS011;7846;48.830;9.116;2023-05-23T02:37:44;72.87;;;50.73;;
15488;SDS011;7846;48.830;9.116;2023-05-23T02:40:09;73.23;;;49.70;;
15488;SDS011;7846;48.830;9.116;2023-05-23T02:42:36;76.10;;;51.20;;
15488;SDS011;7846;48.830;9.116;2023-05-23T02:45:01;64.93;;;48.67;;
15488;SDS011;7846;48.830;9.116;2023-05-23T02:47:26;65.30;;;49.77;;
15488;SDS011;7846;48.830;9.116;2023-05-23T02:49:52;74.47;;;50.40;;
15488;SDS011;7846;48.830;9.116;2023-05-23T02:52:18;68.03;;;46.23;;
15488;SDS011;7846;48.830;9.116;2023-05-23T02:54:44;73.37;;;51.13;;
15488;SDS011;7846;48.830;9.116;2023-05-23T02:57:10;75.70;;;50.57;;
15488;SDS011;7846;48.830;9.116;2023-05-23T02:59:36;66.57;;;49.20;;
15488;SDS011;7846;48.830;9.116;2023-05-23T03:02:02;66.70;;;48.93;;
15488;SDS011;7846;48.830;9.116;2023-05-23T03:04:28;64.57;;;48.77;;
15488;SDS011;7846;48.830;9.116;2023-05-23T03:06:54;68.07;;;48.30;;
15488;SDS011;7846;48.830;9.116;2023-05-23T03:09:19;64.30;;;48.73;;
15488;SDS011;7846;48.830;9.116;2023-05-23T03:11:45;64.83;;;48.53;;
15488;SDS011;7846;48.830;9.116;2023-05-23T03:14:11;65.27;;;47.97;;
15488;SDS011;7846;48.830;9.116;2023-05-23T03:16:37;65.93;;;47.03;;
15488;SDS011;7846;48.830;9.116;2023-05-23T03:19:02;63.10;;;47.77;;
15488;SDS011;7846;48.830;9.116;2023-05-23T03:21:30;62.27;;;46.07;;
15488;SDS011;7846;48.830;9.116;2023-05-23T03:23:56;59.80;;;46.17;;
15488;SDS011;7846;48.830;9.116;2023-05-23T03:26:23;57.20;;;45.43;;
15488;SDS011;7846;48.830;9.116;2023-05-23T03:28:49;59.47;;;45.90;;
15488;SDS011;7846;48.830;9.116;2023-05-23T03:31:18;57.53;;;44.57;;
15488;SDS011;7846;48.830;9.116;2023-05-23T03:33:43;55.50;;;44.33;;
15488;SDS011;7846;48.830;9.116;2023-05-23T03:36:08;62.10;;;45.20;;
15488;SDS011;7846;48.830;9.116;2023-05-23T03:38:34;57.77;;;44.47;;
15488;SDS011;7846;48.830;9.116;2023-05-23T03:40:59;60.70;;;45.57;;
15488;SDS011;7846;48.830;9.116;2023-05-23T03:43:27;58.37;;;45.43;;
15488;SDS011;7846;48.830;9.116;2023-05-23T03:45:52;56.63;;;42.63;;
15488;SDS011;7846;48.830;9.116;2023-05-23T03:48:18;55.27;;;43.00;;
15488;SDS011;7846;48.830;9.116;2023-05-23T03:50:44;54.37;;;43.63;;
15488;SDS011;7846;48.830;9.116;2023-05-23T03:53:12;59.20;;;43.53;;
15488;SDS011;7846;48.830;9.116;2023-05-23T03:55:38;56.37;;;43.17;;
15488;SDS011;7846;48.830;9.116;2023-05-23T03:58:06;55.07;;;42.57;;
15488;SDS011;7846;48.830;9.116;2023-05-23T04:00:34;51.90;;;42.93;;
15488;SDS011;7846;48.830;9.116;2023-05-23T04:03:00;55.37;;;44.37;;
15488;SDS011;7846;48.830;9.116;2023-05-23T04:05:25;56.33;;;43.80;;
15488;SDS011;7846;48.830;9.116;2023-05-23T04:07:50;51.03;;;42.33;;
15488;SDS011;7846;48.830;9.116;2023-05-23T04:10:16;53.67;;;40.60;;
15488;SDS011;7846;48.830;9.116;2023-05-23T04:12:42;56.50;;;41.50;;
15488;SDS011;7846;48.830;9.116;2023-05-23T04:15:07;52.23;;;42.80;;
15488;SDS011;7846;48.830;9.116;2023-05-23T04:17:33;52.30;;;42.53;;
15488;SDS011;7846;48.830;9.116;2023-05-23T04:19:59;51.57;;;42.97;;
15488;SDS011;7846;48.830;9.116;2023-05-23T04:22:24;50.33;;;40.70;;
15488;SDS011;7846;48.830;9.116;2023-05-23T04:24:51;50.87;;;42.10;;
15488;SDS011;7846;48.830;9.116;2023-05-23T04:27:17;49.97;;;42.37;;
15488;SDS011;7846;48.830;9.116;2023-05-23T04:29:43;51.20;;;41.20;;
15488;SDS011;7846;48.830;9.116;2023-05-23T04:32:10;47.33;;;38.60;;
15488;SDS011;7846;48.830;9.116;2023-05-23T04:34:36;47.63;;;40.10;;
15488;SDS011;7846;48.830;9.116;2023-05-23T04:37:01;46.77;;;39.17;;
15488;SDS011;7846;48.830;9.116;2023-05-23T04:39:27;47.93;;;40.27;;
15488;SDS011;7846;48.830;9.116;2023-05-23T04:41:56;46.50;;;38.13;;
15488;SDS011;7846;48.830;9.116;2023-05-23T04:44:22;51.30;;;41.73;;
15488;SDS011;7846;48.830;9.116;2023-05-23T04:46:47;50.90;;;42.30;;
15488;SDS011;7846;48.830;9.116;2023-05-23T04:49:14;52.23;;;43.97;;
15488;SDS011;7846;48.830;9.116;2023-05-23T04:51:41;52.07;;;41.63;;
15488;SDS011;7846;48.830;9.116;2023-05-23T04:54:07;55.23;;;42.50;;
15488;SDS011;7846;48.830;9.116;2023-05-23T04:56:33;48.07;;;41.67;;
15488;SDS011;7846;48.830;9.116;2023-05-23T04:58:58;46.33;;;39.23;;
15488;SDS011;7846;48.830;9.116;2023-05-23T05:01:23;48.63;;;41.50;;
15488;SDS011;7846;48.830;9.116;2023-05-23T05:03:49;48.27;;;41.53;;
15488;SDS011;7846;48.830;9.116;2023-05-23T05:06:15;46.10;;;38.67;;
15488;SDS011;7846;48.830;9.116;2023-05-23T05:08:42;46.30;;;40.23;;
15488;SDS011;7846;48.830;9.116;2023-05-23T05:11:08;45.03;;;40.10;;
15488;SDS011;7846;48.830;9.116;2023-05-23T05:13:34;44.10;;;38.87;;
15488;SDS011;7846;48.830;9.116;2023-05-23T05:15:59;45.93;;;39.50;;
15488;SDS011;7846;48.830;9.116;2023-05-23T05:18:25;45.63;;;40.67;;
15488;SDS011;7846;48.830;9.116;2023-05-23T05:20:51;46.83;;;38.97;;
15488;SDS011;7846;48.830;9.116;2023-05-23T05:23:16;44.60;;;38.83;;
15488;SDS011;7846;48.830;9.116;2023-05-23T05:25:44;45.27;;;39.70;;
15488;SDS011;7846;48.830;9.116;2023-05-23T05:28:10;46.30;;;40.07;;
15488;SDS011;7846;48.830;9.116;2023-05-23T05:30:35;48.50;;;40.60;;
15488;SDS011;7846;48.830;9.116;2023-05-23T05:33:01;44.20;;;36.87;;
15488;SDS011;7846;48.830;9.116;2023-05-23T05:35:32;45.27;;;40.30;;
15488;SDS011;7846;48.830;9.116;2023-05-23T05:37:58;45.67;;;40.77;;
15488;SDS011;7846;48.830;9.116;2023-05-23T05:40:24;44.97;;;40.17;;
15488;SDS011;7846;48.830;9.116;2023-05-23T05:42:50;45.67;;;39.23;;
15488;SDS011;7846;48.830;9.116;2023-05-23T05:45:16;43.73;;;38.97;;
15488;SDS011;7846;48.830;9.116;2023-05-23T05:47:41;43.50;;;37.53;;
15488;SDS011;7846;48.830;9.116;2023-05-23T05:50:07;40.87;;;36.53;;
15488;SDS011;7846;48.830;9.116;2023-05-23T05:52:35;42.43;;;37.20;;
15488;SDS011;7846;48.830;9.116;2023-05-23T05:55:12;44.70;;;39.97;;
15488;SDS011;7846;48.830;9.116;2023-05-23T05:57:38;44.83;;;39.93;;
15488;SDS011;7846;48.830;9.116;2023-05-23T06:00:05;44.13;;;39.13;;
15488;SDS011;7846;48.830;9.116;2023-05-23T06:02:36;43.47;;;38.50;;
15488;SDS011;7846;48.830;9.116;2023-05-23T06:05:02;47.87;;;40.90;;
15488;SDS011;7846;48.830;9.116;2023-05-23T06:07:28;43.23;;;38.83;;
15488;SDS011;7846;48.830;9.116;2023-05-23T06:09:55;43.53;;;38.87;;
15488;SDS011;7846;48.830;9.116;2023-05-23T06:12:20;43.57;;;38.87;;
15488;SDS011;7846;48.830;9.116;2023-05-23T06:14:45;43.23;;;38.53;;
15488;SDS011;7846;48.830;9.116;2023-05-23T06:17:11;41.93;;;37.43;;
15488;SDS011;7846;48.830;9.116;2023-05-23T06:19:36;41.13;;;36.77;;
15488;SDS011;7846;48.830;9.116;2023-05-23T06:22:02;41.63;;;37.33;;
15488;SDS011;7846;48.830;9.116;2023-05-23T06:24:28;40.17;;;35.87;;
15488;SDS011;7846;48.830;9.116;2023-05-23T06:26:53;40.77;;;36.37;;
15488;SDS011;7846;48.830;9.116;2023-05-23T06:29:18;41.57;;;35.47;;
15488;SDS011;7846;48.830;9.116;2023-05-23T06:31:44;39.03;;;34.80;;
15488;SDS011;7846;48.830;9.116;2023-05-23T06:34:09;38.73;;;34.63;;
15488;SDS011;7846;48.830;9.116;2023-05-23T06:36:34;40.50;;;36.40;;
15488;SDS011;7846;48.830;9.116;2023-05-23T06:39:01;37.93;;;33.77;;
15488;SDS011;7846;48.830;9.116;2023-05-23T06:41:26;37.50;;;33.70;;
15488;SDS011;7846;48.830;9.116;2023-05-23T06:43:53;38.57;;;34.57;;
15488;SDS011;7846;48.830;9.116;2023-05-23T06:46:21;35.93;;;31.97;;
15488;SDS011;7846;48.830;9.116;2023-05-23T06:48:47;42.67;;;38.10;;
15488;SDS011;7846;48.830;9.116;2023-05-23T06:51:12;40.97;;;36.77;;
15488;SDS011;7846;48.830;9.116;2023-05-23T06:53:38;39.60;;;35.43;;
15488;SDS011;7846;48.830;9.116;2023-05-23T06:56:03;39.07;;;35.00;;
15488;SDS011;7846;48.830;9.116;2023-05-23T06:58:28;33.57;;;29.93;;
15488;SDS011;7846;48.830;9.116;2023-05-23T07:00:54;34.33;;;30.83;;
15488;SDS011;7846;48.830;9.116;2023-05-23T07:03:19;32.63;;;29.33;;
15488;SDS011;7846;48.830;9.116;2023-05-23T07:05:45;33.90;;;30.50;;
15488;SDS011;7846;48.830;9.116;2023-05-23T07:08:11;31.17;;;27.83;;
15488;SDS011;7846;48.830;9.116;2023-05-23T07:10:37;32.13;;;28.83;;
15488;SDS011;7846;48.830;9.116;2023-05-23T07:13:05;30.80;;;27.70;;
15488;SDS011;7846;48.830;9.116;2023-05-23T07:15:31;29.20;;;25.37;;
15488;SDS011;7846;48.830;9.116;2023-05-23T07:17:56;27.57;;;24.73;;
15488;SDS011;7846;48.830;9.116;2023-05-23T07:20:24;26.53;;;23.63;;
15488;SDS011;7846;48.830;9.116;2023-05-23T07:22:49;27.37;;;24.73;;
15488;SDS011;7846;48.830;9.116;2023-05-23T07:25:15;21.60;;;19.30;;
15488;SDS011;7846;48.830;9.116;2023-05-23T07:27:41;26.40;;;23.63;;
15488;SDS011;7846;48.830;9.116;2023-05-23T07:30:08;34.40;;;30.80;;
15488;SDS011;7846;48.830;9.116;2023-05-23T07:32:34;32.80;;;29.40;;
15488;SDS011;7846;48.830;9.116;2023-05-23T07:34:59;36.90;;;33.10;;
15488;SDS011;7846;48.830;9.116;2023-05-23T07:37:25;35.53;;;31.67;;
15488;SDS011;7846;48.830;9.116;2023-05-23T07:39:51;32.17;;;28.87;;
15488;SDS011;7846;48.830;9.116;2023-05-23T07:42:18;28.23;;;25.43;;
15488;SDS011;7846;48.830;9.116;2023-05-23T07:44:43;27.57;;;24.60;;
15488;SDS011;7846;48.830;9.116;2023-05-23T07:47:10;24.37;;;22.00;;
15488;SDS011;7846;48.830;9.116;2023-05-23T07:49:36;23.90;;;21.63;;
15488;SDS011;7846;48.830;9.116;2023-05-23T07:52:03;24.17;;;21.67;;
15488;SDS011;7846;48.830;9.116;2023-05-23T07:54:29;22.43;;;20.33;;
15488;SDS011;7846;48.830;9.116;2023-05-23T07:56:54;22.47;;;20.30;;
15488;SDS011;7846;48.830;9.116;2023-05-23T07:59:20;23.33;;;21.13;;
15488;SDS011;7846;48.830;9.116;2023-05-23T08:01:46;22.43;;;20.13;;
15488;SDS011;7846;48.830;9.116;2023-05-23T08:04:14;22.37;;;20.07;;
15488;SDS011;7846;48.830;9.116;2023-05-23T08:06:40;22.90;;;20.60;;
15488;SDS011;7846;48.830;9.116;2023-05-23T08:09:05;22.87;;;20.50;;
15488;SDS011;7846;48.830;9.116;2023-05-23T08:11:31;23.23;;;20.97;;
15488;SDS011;7846;48.830;9.116;2023-05-23T08:13:57;20.73;;;18.63;;
15488;SDS011;7846;48.830;9.116;2023-05-23T08:16:24;21.53;;;17.20;;
15488;SDS011;7846;48.830;9.116;2023-05-23T08:18:50;20.13;;;16.83;;
15488;SDS011;7846;48.830;9.116;2023-05-23T08:21:19;18.87;;;17.07;;
15488;SDS011;7846;48.830;9.116;2023-05-23T08:23:44;19.67;;;17.77;;
15488;SDS011;7846;48.830;9.116;2023-05-23T08:26:10;19.67;;;17.57;;
15488;SDS011;7846;48.830;9.116;2023-05-23T08:28:36;19.90;;;17.80;;
15488;SDS011;7846;48.830;9.116;2023-05-23T08:31:01;21.20;;;19.17;;
15488;SDS011;7846;48.830;9.116;2023-05-23T08:33:27;18.03;;;16.10;;
15488;SDS011;7846;48.830;9.116;2023-05-23T08:35:52;21.10;;;19.20;;
15488;SDS011;7846;48.830;9.116;2023-05-23T08:38:19;12.70;;;11.37;;
15488;SDS011;7846;48.830;9.116;2023-05-23T08:40:48;20.20;;;18.30;;
15488;SDS011;7846;48.830;9.116;2023-05-23T08:43:16;18.33;;;16.60;;
15488;SDS011;7846;48.830;9.116;2023-05-23T08:45:41;17.27;;;15.47;;
15488;SDS011;7846;48.830;9.116;2023-05-23T08:48:10;21.10;;;18.90;;
15488;SDS011;7846;48.830;9.116;2023-05-23T08:50:40;18.30;;;16.40;;
15488;SDS011;7846;48.830;9.116;2023-05-23T08:53:10;20.20;;;18.20;;
15488;SDS011;7846;48.830;9.116;2023-05-23T08:55:44;16.63;;;14.97;;
15488;SDS011;7846;48.830;9.116;2023-05-23T08:58:15;21.73;;;19.67;;
15488;SDS011;7846;48.830;9.116;2023-05-23T09:00:43;20.87;;;18.67;;
15488;SDS011;7846;48.830;9.116;2023-05-23T09:03:09;20.27;;;18.17;;
15488;SDS011;7846;48.830;9.116;2023-05-23T09:05:36;20.43;;;17.60;;
15488;SDS011;7846;48.830;9.116;2023-05-23T09:08:01;19.20;;;17.23;;
15488;SDS011;7846;48.830;9.116;2023-05-23T09:10:27;17.07;;;15.37;;
15488;SDS011;7846;48.830;9.116;2023-05-23T09:12:53;16.67;;;15.07;;
15488;SDS011;7846;48.830;9.116;2023-05-23T09:15:19;18.73;;;16.80;;
15488;SDS011;7846;48.830;9.116;2023-05-23T09:17:46;14.33;;;12.93;;
15488;SDS011;7846;48.830;9.116;2023-05-23T09:20:12;17.13;;;15.30;;
15488;SDS011;7846;48.830;9.116;2023-05-23T09:22:39;16.27;;;14.87;;
15488;SDS011;7846;48.830;9.116;2023-05-23T09:25:07;17.00;;;15.30;;
15488;SDS011;7846;48.830;9.116;2023-05-23T09:27:33;16.47;;;14.87;;
15488;SDS011;7846;48.830;9.116;2023-05-23T09:30:04;16.10;;;14.53;;
15488;SDS011;7846;48.830;9.116;2023-05-23T09:32:33;15.27;;;13.87;;
15488;SDS011;7846;48.830;9.116;2023-05-23T09:35:00;14.93;;;13.47;;
15488;SDS011;7846;48.830;9.116;2023-05-23T09:37:38;14.90;;;13.40;;
15488;SDS011;7846;48.830;9.116;2023-05-23T09:40:11;14.63;;;13.23;;
15488;SDS011;7846;48.830;9.116;2023-05-23T09:42:41;15.60;;;14.03;;
15488;SDS011;7846;48.830;9.116;2023-05-23T09:45:08;13.63;;;12.07;;
15488;SDS011;7846;48.830;9.116;2023-05-23T09:47:34;12.40;;;11.17;;
15488;SDS011;7846;48.830;9.116;2023-05-23T09:49:59;13.87;;;12.57;;
15488;SDS011;7846;48.830;9.116;2023-05-23T09:52:25;12.90;;;10.73;;
15488;SDS011;7846;48.830;9.116;2023-05-23T09:54:50;13.60;;;11.60;;
15488;SDS011;7846;48.830;9.116;2023-05-23T09:57:16;12.47;;;11.27;;
15488;SDS011;7846;48.830;9.116;2023-05-23T09:59:51;12.33;;;11.03;;
15488;SDS011;7846;48.830;9.116;2023-05-23T10:05:47;9.63;;;8.60;;
15488;SDS011;7846;48.830;9.116;2023-05-23T10:08:23;11.40;;;10.30;;
15488;SDS011;7846;48.830;9.116;2023-05-23T10:13:26;10.60;;;9.63;;
15488;SDS011;7846;48.830;9.116;2023-05-23T10:15:58;10.03;;;9.13;;
15488;SDS011;7846;48.830;9.116;2023-05-23T10:18:28;9.80;;;8.90;;
15488;SDS011;7846;48.830;9.116;2023-05-23T10:20:56;11.37;;;9.10;;
15488;SDS011;7846;48.830;9.116;2023-05-23T10:23:30;9.83;;;8.93;;
15488;SDS011;7846;48.830;9.116;2023-05-23T10:25:57;9.90;;;8.90;;
15488;SDS011;7846;48.830;9.116;2023-05-23T10:28:23;10.10;;;9.20;;
15488;SDS011;7846;48.830;9.116;2023-05-23T10:30:51;9.90;;;9.00;;
15488;SDS011;7846;48.830;9.116;2023-05-23T10:33:16;9.20;;;8.50;;
15488;SDS011;7846;48.830;9.116;2023-05-23T10:38:38;10.70;;;9.60;;
15488;SDS011;7846;48.830;9.116;2023-05-23T10:41:24;9.87;;;8.97;;
15488;SDS011;7846;48.830;9.116;2023-05-23T10:43:59;8.77;;;7.97;;
15488;SDS011;7846;48.830;9.116;2023-05-23T10:46:51;9.63;;;8.83;;
15488;SDS011;7846;48.830;9.116;2023-05-23T10:49:23;8.70;;;7.90;;
15488;SDS011;7846;48.830;9.116;2023-05-23T10:52:01;9.43;;;8.53;;
15488;SDS011;7846;48.830;9.116;2023-05-23T10:54:27;8.33;;;7.63;;
15488;SDS011;7846;48.830;9.116;2023-05-23T10:57:04;8.67;;;8.00;;
15488;SDS011;7846;48.830;9.116;2023-05-23T10:59:32;8.00;;;7.30;;
15488;SDS011;7846;48.830;9.116;2023-05-23T11:01:58;8.00;;;7.40;;
15488;SDS011;7846;48.830;9.116;2023-05-23T11:04:28;8.77;;;7.93;;
15488;SDS011;7846;48.830;9.116;2023-05-23T11:06:54;8.90;;;8.10;;
15488;SDS011;7846;48.830;9.116;2023-05-23T11:09:21;7.83;;;7.13;;
15488;SDS011;7846;48.830;9.116;2023-05-23T11:14:13;8.40;;;7.47;;
15488;SDS011;7846;48.830;9.116;2023-05-23T11:16:39;8.47;;;7.70;;
15488;SDS011;7846;48.830;9.116;2023-05-23T11:21:48;9.67;;;8.77;;
15488;SDS011;7846;48.830;9.116;2023-05-23T11:24:14;9.57;;;8.67;;
15488;SDS011;7846;48.830;9.116;2023-05-23T11:26:40;10.27;;;9.37;;
15488;SDS011;7846;48.830;9.116;2023-05-23T11:29:28;11.00;;;9.40;;
15488;SDS011;7846;48.830;9.116;2023-05-23T11:31:54;10.10;;;9.30;;
15488;SDS011;7846;48.830;9.116;2023-05-23T11:34:20;10.73;;;9.83;;
15488;SDS011;7846;48.830;9.116;2023-05-23T11:36:46;11.47;;;9.60;;
15488;SDS011;7846;48.830;9.116;2023-05-23T11:39:12;9.97;;;9.07;;
15488;SDS011;7846;48.830;9.116;2023-05-23T11:41:40;8.97;;;8.10;;
15488;SDS011;7846;48.830;9.116;2023-05-23T11:44:15;9.17;;;8.37;;
15488;SDS011;7846;48.830;9.116;2023-05-23T11:46:40;8.33;;;7.73;;
15488;SDS011;7846;48.830;9.116;2023-05-23T11:49:09;9.43;;;8.40;;
15488;SDS011;7846;48.830;9.116;2023-05-23T11:51:35;8.53;;;7.73;;
15488;SDS011;7846;48.830;9.116;2023-05-23T11:54:01;9.00;;;8.20;;
15488;SDS011;7846;48.830;9.116;2023-05-23T11:56:26;8.17;;;7.37;;
15488;SDS011;7846;48.830;9.116;2023-05-23T11:58:53;8.73;;;7.93;;
15488;SDS011;7846;48.830;9.116;2023-05-23T12:01:27;7.87;;;7.13;;
15488;SDS011;7846;48.830;9.116;2023-05-23T12:03:55;8.33;;;7.63;;
15488;SDS011;7846;48.830;9.116;2023-05-23T12:06:20;8.17;;;7.47;;
15488;SDS011;7846;48.830;9.116;2023-05-23T12:08:48;7.10;;;6.50;;
15488;SDS011;7846;48.830;9.116;2023-05-23T12:11:17;7.63;;;7.00;;
15488;SDS011;7846;48.830;9.116;2023-05-23T12:13:43;8.30;;;7.60;;
15488;SDS011;7846;48.830;9.116;2023-05-23T12:16:08;7.57;;;6.87;;
15488;SDS011;7846;48.830;9.116;2023-05-23T12:18:37;8.67;;;7.10;;
15488;SDS011;7846;48.830;9.116;2023-05-23T12:21:02;6.70;;;6.20;;
15488;SDS011;7846;48.830;9.116;2023-05-23T12:23:30;6.93;;;6.27;;
15488;SDS011;7846;48.830;9.116;2023-05-23T12:25:56;6.50;;;6.00;;
15488;SDS011;7846;48.830;9.116;2023-05-23T12:28:33;6.83;;;6.13;;
15488;SDS011;7846;48.830;9.116;2023-05-23T12:31:10;6.20;;;5.60;;
15488;SDS011;7846;48.830;9.116;2023-05-23T12:33:43;6.20;;;5.37;;
15488;SDS011;7846;48.830;9.116;2023-05-23T12:36:13;12.37;;;6.60;;
15488;SDS011;7846;48.830;9.116;2023-05-23T12:38:38;6.13;;;5.63;;
15488;SDS011;7846;48.830;9.116;2023-05-23T12:41:16;5.67;;;5.17;;
15488;SDS011;7846;48.830;9.116;2023-05-23T12:43:52;5.90;;;5.40;;
15488;SDS011;7846;48.830;9.116;2023-05-23T12:46:19;11.63;;;6.23;;
15488;SDS011;7846;48.830;9.116;2023-05-23T12:48:45;6.07;;;5.00;;
15488;SDS011;7846;48.830;9.116;2023-05-23T12:51:11;5.30;;;4.90;;
15488;SDS011;7846;48.830;9.116;2023-05-23T12:53:37;5.33;;;4.83;;
15488;SDS011;7846;48.830;9.116;2023-05-23T12:56:03;6.90;;;5.17;;
15488;SDS011;7846;48.830;9.116;2023-05-23T12:58:28;5.10;;;4.70;;
15488;SDS011;7846;48.830;9.116;2023-05-23T13:00:57;4.80;;;4.50;;
15488;SDS011;7846;48.830;9.116;2023-05-23T13:03:23;5.13;;;4.47;;
15488;SDS011;7846;48.830;9.116;2023-05-23T13:05:48;3.90;;;3.60;;
15488;SDS011;7846;48.830;9.116;2023-05-23T13:08:14;4.53;;;4.13;;
15488;SDS011;7846;48.830;9.116;2023-05-23T13:10:40;4.70;;;4.27;;
15488;SDS011;7846;48.830;9.116;2023-05-23T13:13:06;5.00;;;4.50;;
15488;SDS011;7846;48.830;9.116;2023-05-23T13:15:31;4.90;;;4.27;;
15488;SDS011;7846;48.830;9.116;2023-05-23T13:17:56;5.50;;;4.50;;
15488;SDS011;7846;48.830;9.116;2023-05-23T13:20:22;9.07;;;4.30;;
15488;SDS011;7846;48.830;9.116;2023-05-23T13:22:49;16.33;;;4.70;;
15488;SDS011;7846;48.830;9.116;2023-05-23T13:25:14;8.60;;;4.40;;
15488;SDS011;7846;48.830;9.116;2023-05-23T13:27:40;7.33;;;4.93;;
15488;SDS011;7846;48.830;9.116;2023-05-23T13:30:09;5.17;;;4.23;;
15488;SDS011;7846;48.830;9.116;2023-05-23T13:32:35;4.97;;;4.60;;
15488;SDS011;7846;48.830;9.116;2023-05-23T13:35:00;6.03;;;4.23;;
15488;SDS011;7846;48.830;9.116;2023-05-23T13:37:26;4.33;;;3.90;;
15488;SDS011;7846;48.830;9.116;2023-05-23T13:39:52;4.70;;;4.17;;
15488;SDS011;7846;48.830;9.116;2023-05-23T13:42:18;4.70;;;4.30;;
15488;SDS011;7846;48.830;9.116;2023-05-23T13:44:44;4.07;;;3.67;;
15488;SDS011;7846;48.830;9.116;2023-05-23T13:47:10;4.57;;;4.03;;
15488;SDS011;7846;48.830;9.116;2023-05-23T13:49:36;4.00;;;3.70;;
15488;SDS011;7846;48.830;9.116;2023-05-23T13:52:02;4.40;;;4.00;;
15488;SDS011;7846;48.830;9.116;2023-05-23T13:54:27;5.10;;;3.97;;
15488;SDS011;7846;48.830;9.116;2023-05-23T13:56:53;4.27;;;3.97;;
15488;SDS011;7846;48.830;9.116;2023-05-23T13:59:20;6.57;;;4.10;;
15488;SDS011;7846;48.830;9.116;2023-05-23T14:01:46;4.60;;;4.20;;
15488;SDS011;7846;48.830;9.116;2023-05-23T14:04:12;5.00;;;4.60;;
15488;SDS011;7846;48.830;9.116;2023-05-23T14:06:37;4.70;;;4.40;;
15488;SDS011;7846;48.830;9.116;2023-05-23T14:09:02;6.33;;;4.47;;
15488;SDS011;7846;48.830;9.116;2023-05-23T14:11:29;6.03;;;4.63;;
15488;SDS011;7846;48.830;9.116;2023-05-23T14:13:54;4.67;;;4.10;;
15488;SDS011;7846;48.830;9.116;2023-05-23T14:16:20;4.70;;;4.30;;
15488;SDS011;7846;48.830;9.116;2023-05-23T14:18:46;3.93;;;3.43;;
15488;SDS011;7846;48.830;9.116;2023-05-23T14:21:11;4.43;;;4.03;;
15488;SDS011;7846;48.830;9.116;2023-05-23T14:23:39;4.07;;;3.70;;
15488;SDS011;7846;48.830;9.116;2023-05-23T14:26:05;4.60;;;4.20;;
15488;SDS011;7846;48.830;9.116;2023-05-23T14:28:33;5.03;;;3.90;;
15488;SDS011;7846;48.830;9.116;2023-05-23T14:30:59;4.50;;;4.20;;
15488;SDS011;7846;48.830;9.116;2023-05-23T14:33:24;4.50;;;4.10;;
15488;SDS011;7846;48.830;9.116;2023-05-23T14:35:50;4.70;;;4.20;;
15488;SDS011;7846;48.830;9.116;2023-05-23T14:38:15;5.03;;;4.63;;
15488;SDS011;7846;48.830;9.116;2023-05-23T14:40:41;4.57;;;4.17;;
15488;SDS011;7846;48.830;9.116;2023-05-23T14:43:06;4.50;;;4.10;;
15488;SDS011;7846;48.830;9.116;2023-05-23T14:45:32;4.00;;;3.60;;
15488;SDS011;7846;48.830;9.116;2023-05-23T14:47:57;3.43;;;3.23;;
15488;SDS011;7846;48.830;9.116;2023-05-23T14:50:24;5.03;;;3.90;;
15488;SDS011;7846;48.830;9.116;2023-05-23T14:52:52;3.60;;;3.30;;
15488;SDS011;7846;48.830;9.116;2023-05-23T14:55:18;3.37;;;3.00;;
15488;SDS011;7846;48.830;9.116;2023-05-23T14:57:50;3.80;;;3.13;;
15488;SDS011;7846;48.830;9.116;2023-05-23T15:00:15;5.20;;;3.47;;
15488;SDS011;7846;48.830;9.116;2023-05-23T15:02:41;6.83;;;3.73;;